地図

経路データ

SID SEASON NUMBER BASIN SUBBASIN NAME ISO_TIME NATURE LAT LON WMO_WIND WMO_PRES WMO_AGENCY TRACK_TYPE DIST2LAND LANDFALL IFLAG USA_AGENCY USA_ATCF_ID USA_LAT USA_LON USA_RECORD USA_STATUS USA_WIND USA_PRES USA_SSHS USA_R34_NE USA_R34_SE USA_R34_SW USA_R34_NW USA_R50_NE USA_R50_SE USA_R50_SW USA_R50_NW USA_R64_NE USA_R64_SE USA_R64_SW USA_R64_NW USA_POCI USA_ROCI USA_RMW USA_EYE TOKYO_LAT TOKYO_LON TOKYO_GRADE TOKYO_WIND TOKYO_PRES TOKYO_R50_DIR TOKYO_R50_LONG TOKYO_R50_SHORT TOKYO_R30_DIR TOKYO_R30_LONG TOKYO_R30_SHORT TOKYO_LAND CMA_LAT CMA_LON CMA_CAT CMA_WIND CMA_PRES HKO_LAT HKO_LON HKO_CAT HKO_WIND HKO_PRES NEWDELHI_LAT NEWDELHI_LON NEWDELHI_GRADE NEWDELHI_WIND NEWDELHI_PRES NEWDELHI_CI NEWDELHI_DP NEWDELHI_POCI REUNION_LAT REUNION_LON REUNION_TYPE REUNION_WIND REUNION_PRES REUNION_TNUM REUNION_CI REUNION_RMW REUNION_R34_NE REUNION_R34_SE REUNION_R34_SW REUNION_R34_NW REUNION_R50_NE REUNION_R50_SE REUNION_R50_SW REUNION_R50_NW REUNION_R64_NE REUNION_R64_SE REUNION_R64_SW REUNION_R64_NW BOM_LAT BOM_LON BOM_TYPE BOM_WIND BOM_PRES BOM_TNUM BOM_CI BOM_RMW BOM_R34_NE BOM_R34_SE BOM_R34_SW BOM_R34_NW BOM_R50_NE BOM_R50_SE BOM_R50_SW BOM_R50_NW BOM_R64_NE BOM_R64_SE BOM_R64_SW BOM_R64_NW BOM_ROCI BOM_POCI BOM_EYE BOM_POS_METHOD BOM_PRES_METHOD NADI_LAT NADI_LON NADI_CAT NADI_WIND NADI_PRES WELLINGTON_LAT WELLINGTON_LON WELLINGTON_WIND WELLINGTON_PRES DS824_LAT DS824_LON DS824_STAGE DS824_WIND DS824_PRES TD9636_LAT TD9636_LON TD9636_STAGE TD9636_WIND TD9636_PRES TD9635_LAT TD9635_LON TD9635_WIND TD9635_PRES TD9635_ROCI NEUMANN_LAT NEUMANN_LON NEUMANN_CLASS NEUMANN_WIND NEUMANN_PRES MLC_LAT MLC_LON MLC_CLASS MLC_WIND MLC_PRES USA_GUST BOM_GUST BOM_GUST_PER REUNION_GUST REUNION_GUST_PER USA_SEAHGT USA_SEARAD_NE USA_SEARAD_SE USA_SEARAD_SW USA_SEARAD_NW STORM_SPEED STORM_DIR
1948273N24144 1948 68 WP MM LIBBY 1948-09-29 06:00:00 TS 24.4000 144.000 main 1236 1214 O________O_O__ jtwc_wp WP171948 24.4000 144.000 55 0 24.4000 144.000 TC 55 24.4000 144.000 55 984 420 8 290
1948273N24144 1948 68 WP MM LIBBY 1948-09-29 09:00:00 TS 24.5452 143.568 main 1214 1179 P________P_P__ WP171948 24.5452 143.568 67 1 24.5452 143.568 TC 67 24.5452 143.568 67 977 420 9 290
1948273N24144 1948 68 WP MM LIBBY 1948-09-29 12:00:00 TS 24.7000 143.100 main 1179 1142 O________OOO__ jtwc_wp WP171948 24.7000 143.100 80 1 24.7000 143.100 TC 80 24.7000 143.100 3 80 24.7000 143.100 80 971 420 10 289
1948273N24144 1948 68 WP MM LIBBY 1948-09-29 15:00:00 TS 24.8594 142.565 main 1142 1113 P________PPP__ WP171948 24.8649 142.573 90 2 24.8649 142.573 TC 90 24.8267 142.522 3 90 24.8649 142.573 90 964 420 10 286
1948273N24144 1948 68 WP MM LIBBY 1948-09-29 18:00:00 TS 24.9884 141.989 main 1113 1073 O________OPO__ jtwc_wp WP171948 25.0000 142.000 100 3 25.0000 142.000 TC 100 24.9418 141.944 3 100 25.0000 142.000 100 957 420 11 281
1948273N24144 1948 68 WP MM LIBBY 1948-09-29 21:00:00 TS 25.0634 141.387 main 1073 1045 P________PPP__ WP171948 25.0725 141.392 110 3 25.0725 141.392 TC 110 25.0360 141.369 3 110 25.0725 141.392 110 949 420 11 276
1948273N24144 1948 68 WP MM LIBBY 1948-09-30 00:00:00 TS 25.1000 140.800 main 1045 1023 O________OOO__ jtwc_wp WP171948 25.1000 140.800 120 4 25.1000 140.800 TC 120 25.1000 140.800 4 120 25.1000 140.800 120 942 420 10 273
1948273N24144 1948 68 WP MM LIBBY 1948-09-30 03:00:00 TS 25.1123 140.284 main 1023 1003 P________PPP__ WP171948 25.1070 140.300 122 4 25.1070 140.300 TC 122 25.1281 140.238 4 120 25.1070 140.300 122 933 390 9 270
1948273N24144 1948 68 WP MM LIBBY 1948-09-30 06:00:00 TS 25.1073 139.771 main 1003 983 O________OPO__ jtwc_wp WP171948 25.1000 139.800 125 4 25.1000 139.800 TC 125 25.1292 139.684 4 120 25.1000 139.800 125 924 360 10 270
1948273N24144 1948 68 WP MM LIBBY 1948-09-30 09:00:00 TS 25.1040 139.185 main 983 965 P________PPP__ WP171948 25.1001 139.200 122 4 25.1001 139.200 TC 122 25.1157 139.138 4 120 25.1001 139.200 122 927 330 11 270
1948273N24144 1948 68 WP MM LIBBY 1948-09-30 12:00:00 TS 25.1000 138.600 main 965 952 O________OOO__ jtwc_wp WP171948 25.1000 138.600 120 4 25.1000 138.600 TC 120 25.1000 138.600 4 120 25.1000 138.600 120 930 300 10 270
1948273N24144 1948 68 WP MM LIBBY 1948-09-30 15:00:00 TS 25.0995 138.087 main 952 928 P________PPP__ WP171948 25.0996 138.093 115 4 25.0996 138.093 TC 115 25.0992 138.072 4 115 25.0996 138.093 115 942 300 9 270
1948273N24144 1948 68 WP MM LIBBY 1948-09-30 18:00:00 TS 25.0997 137.588 main 928 897 O________OPO__ jtwc_wp WP171948 25.1000 137.600 110 3 25.1000 137.600 TC 110 25.0989 137.550 4 110 25.1000 137.600 110 954 300 9 270
1948273N24144 1948 68 WP MM LIBBY 1948-09-30 21:00:00 TS 25.0997 137.050 main 897 862 P________PPP__ WP171948 25.0999 137.058 105 3 25.0999 137.058 TC 105 25.0992 137.028 4 105 25.0999 137.058 105 961 270 10 270
1948273N24144 1948 68 WP MM LIBBY 1948-10-01 00:00:00 TS 25.1000 136.500 main 862 834 O________OOO__ jtwc_wp WP171948 25.1000 136.500 100 3 25.1000 136.500 TC 100 25.1000 136.500 4 100 25.1000 136.500 100 969 240 10 270
1948273N24144 1948 68 WP MM LIBBY 1948-10-01 03:00:00 TS 25.1009 135.944 main 829 803 P________PPP__ WP171948 25.0998 135.950 95 2 25.0998 135.950 TC 95 25.1043 135.925 4 97 25.0998 135.950 95 970 270 10 270
1948273N24144 1948 68 WP MM LIBBY 1948-10-01 06:00:00 TS 25.1020 135.387 main 803 771 O________OPO__ jtwc_wp WP171948 25.1000 135.400 90 2 25.1000 135.400 TC 90 25.1080 135.348 4 95 25.1000 135.400 90 972 300 10 270
1948273N24144 1948 68 WP MM LIBBY 1948-10-01 09:00:00 TS 25.1020 134.814 main 771 747 P________PPP__ WP171948 25.1001 134.820 90 2 25.1001 134.820 TC 90 25.1076 134.797 4 92 25.1001 134.820 90 972 270 10 270
1948273N24144 1948 68 WP MM LIBBY 1948-10-01 12:00:00 TS 25.1000 134.300 main 747 729 O________OOO__ jtwc_wp WP171948 25.1000 134.300 90 2 25.1000 134.300 TC 90 25.1000 134.300 4 90 25.1000 134.300 90 973 240 8 270
1948273N24144 1948 68 WP MM LIBBY 1948-10-01 15:00:00 TS 25.0996 133.917 main 729 717 P________PPP__ WP171948 25.1072 133.920 90 2 25.1072 133.920 TC 90 25.0768 133.909 4 87 25.1072 133.920 90 973 240 6 269
1948273N24144 1948 68 WP MM LIBBY 1948-10-01 18:00:00 TS 25.0871 133.592 main 717 706 O________OPO__ jtwc_wp WP171948 25.1000 133.600 90 2 25.1000 133.600 TC 90 25.0482 133.570 4 85 25.1000 133.600 90 974 240 6 265
1948273N24144 1948 68 WP MM LIBBY 1948-10-01 21:00:00 TS 25.0425 133.260 main 716 703 P________PPP__ WP171948 25.0498 133.265 85 2 25.0498 133.265 TC 85 25.0206 133.246 4 82 25.0498 133.265 85 974 270 6 262
1948273N24144 1948 68 WP MM LIBBY 1948-10-02 00:00:00 TS 25.0000 132.900 main 703 692 O________OOO__ jtwc_wp WP171948 25.0000 132.900 80 1 25.0000 132.900 TC 80 25.0000 132.900 4 80 25.0000 132.900 80 975 300 7 266
1948273N24144 1948 68 WP MM LIBBY 1948-10-02 03:00:00 TS 24.9905 132.469 main 692 681 P________PPP__ WP171948 24.9925 132.465 77 1 24.9925 132.465 TC 77 24.9846 132.483 4 78 24.9925 132.465 77 975 330 8 270
1948273N24144 1948 68 WP MM LIBBY 1948-10-02 06:00:00 TS 24.9943 132.009 main 681 675 O________OPO__ jtwc_wp WP171948 25.0000 132.000 75 1 25.0000 132.000 TC 75 24.9773 132.037 4 77 25.0000 132.000 75 975 360 8 270
1948273N24144 1948 68 WP MM LIBBY 1948-10-02 09:00:00 TS 24.9952 131.561 main 675 671 P________PPP__ WP171948 24.9998 131.558 75 1 24.9998 131.558 TC 75 24.9814 131.573 4 76 24.9998 131.558 75 974 390 8 270
1948273N24144 1948 68 WP MM LIBBY 1948-10-02 12:00:00 TS 25.0000 131.100 main 671 669 O________OOO__ jtwc_wp WP171948 25.0000 131.100 75 1 25.0000 131.100 TC 75 25.0000 131.100 4 75 25.0000 131.100 75 974 420 9 270
1948273N24144 1948 68 WP MM LIBBY 1948-10-02 15:00:00 TS 24.9947 130.599 main 669 669 P________PPP__ WP171948 24.9850 130.600 75 1 24.9850 130.600 TC 75 25.0238 130.596 4 75 24.9850 130.600 75 973 450 9 271
1948273N24144 1948 68 WP MM LIBBY 1948-10-02 18:00:00 TS 25.0158 130.098 main 672 664 O________OPO__ jtwc_wp WP171948 25.0000 130.100 75 1 25.0000 130.100 TC 75 25.0631 130.090 4 75 25.0000 130.100 75 973 480 9 276
1948273N24144 1948 68 WP MM LIBBY 1948-10-02 21:00:00 TS 25.0939 129.619 main 667 659 P________PPP__ WP171948 25.0850 129.620 75 1 25.0850 129.620 TC 75 25.1208 129.614 4 75 25.0850 129.620 75 972 450 8 283
1948273N24144 1948 68 WP MM LIBBY 1948-10-03 00:00:00 TS 25.2000 129.200 main 664 657 O________OOO__ jtwc_wp WP171948 25.2000 129.200 75 1 25.2000 129.200 TC 75 25.2000 129.200 4 75 25.2000 129.200 75 972 420 7 286
1948273N24144 1948 68 WP MM LIBBY 1948-10-03 03:00:00 TS 25.2939 128.863 main 660 655 P________PPP__ WP171948 25.2924 128.862 75 1 25.2924 128.862 TC 75 25.2987 128.865 4 75 25.2924 128.862 75 971 390 6 291
1948273N24144 1948 68 WP MM LIBBY 1948-10-03 06:00:00 TS 25.4048 128.599 main 658 645 O________OPO__ jtwc_wp WP171948 25.4000 128.600 75 1 25.4000 128.600 TC 75 25.4192 128.595 4 75 25.4000 128.600 75 970 360 5 300
1948273N24144 1948 68 WP MM LIBBY 1948-10-03 09:00:00 TS 25.5512 128.378 main 643 627 P________PPP__ WP171948 25.5499 128.378 75 1 25.5499 128.378 TC 75 25.5552 128.378 4 75 25.5499 128.378 75 969 360 5 309
1948273N24144 1948 68 WP MM LIBBY 1948-10-03 12:00:00 TS 25.7000 128.200 main 627 608 O________OOO__ jtwc_wp WP171948 25.7000 128.200 75 1 25.7000 128.200 TC 75 25.7000 128.200 4 75 25.7000 128.200 75 968 360 4 308
1948273N24144 1948 68 WP MM LIBBY 1948-10-03 15:00:00 TS 25.8020 128.025 main 608 600 P________PPP__ WP171948 25.7925 128.035 75 1 25.7925 128.035 TC 75 25.8305 127.995 4 76 25.7925 128.035 75 966 330 4 307
1948273N24144 1948 68 WP MM LIBBY 1948-10-03 18:00:00 TS 25.9174 127.883 main 600 592 O________OPO__ jtwc_wp WP171948 25.9000 127.900 75 1 25.9000 127.900 TC 75 25.9698 127.830 4 77 25.9000 127.900 75 965 300 4 320
1948273N24144 1948 68 WP MM LIBBY 1948-10-03 21:00:00 TS 26.0948 127.753 main 594 584 P________PPP__ WP171948 26.0850 127.763 77 1 26.0850 127.763 TC 77 26.1242 127.726 4 78 26.0850 127.763 77 964 300 4 337
1948273N24144 1948 68 WP MM LIBBY 1948-10-04 00:00:00 TS 26.3000 127.700 main 589 578 O________OOO__ jtwc_wp WP171948 26.3000 127.700 80 1 26.3000 127.700 TC 80 26.3000 127.700 4 80 26.3000 127.700 80 964 300 4 0
1948273N24144 1948 68 WP MM LIBBY 1948-10-04 03:00:00 TS 26.4911 127.753 main 574 549 P________PPP__ WP171948 26.4925 127.755 85 2 26.4925 127.755 TC 85 26.4870 127.747 4 83 26.4925 127.755 85 964 270 4 23
1948273N24144 1948 68 WP MM LIBBY 1948-10-04 06:00:00 TS 26.6993 127.893 main 549 521 O________OPO__ jtwc_wp WP171948 26.7000 127.900 90 2 26.7000 127.900 TC 90 26.6972 127.873 4 87 26.7000 127.900 90 964 240 5 33
1948273N24144 1948 68 WP MM LIBBY 1948-10-04 09:00:00 TS 26.9290 128.068 main 521 482 P________PPP__ WP171948 26.9275 128.070 92 2 26.9275 128.070 TC 92 26.9338 128.063 4 91 26.9275 128.070 92 964 270 6 36
1948273N24144 1948 68 WP MM LIBBY 1948-10-04 12:00:00 TS 27.2000 128.300 main 482 440 O________OOO__ jtwc_wp WP171948 27.2000 128.300 95 2 27.2000 128.300 TC 95 27.2000 128.300 4 95 27.2000 128.300 95 964 300 7 37
1948273N24144 1948 68 WP MM LIBBY 1948-10-04 15:00:00 TS 27.5258 128.571 main 440 387 P________PPP__ WP171948 27.5425 128.585 90 2 27.5425 128.585 TC 90 27.4756 128.529 4 91 27.5425 128.585 90 965 300 8 37
1948273N24144 1948 68 WP MM LIBBY 1948-10-04 18:00:00 TS 27.8705 128.876 main 387 344 O________OPO__ jtwc_wp WP171948 27.9000 128.900 85 2 27.9000 128.900 TC 85 27.7819 128.804 4 87 27.9000 128.900 85 966 300 8 39
1948273N24144 1948 68 WP MM LIBBY 1948-10-04 21:00:00 TS 28.1805 129.176 main 344 302 P________PPP__ WP171948 28.1999 129.193 82 1 28.1999 129.193 TC 82 28.1223 129.127 4 83 28.1999 129.193 82 967 300 8 41
1948273N24144 1948 68 WP MM LIBBY 1948-10-05 00:00:00 TS 28.5000 129.500 main 302 260 O________OOO__ jtwc_wp WP171948 28.5000 129.500 80 1 28.5000 129.500 TC 80 28.5000 129.500 4 80 28.5000 129.500 80 969 300 9 41
1948273N24144 1948 68 WP MM LIBBY 1948-10-05 03:00:00 TS 28.8383 129.823 main 260 206 P________PPP__ WP171948 28.8121 129.806 77 1 28.8121 129.806 TC 77 28.9169 129.873 4 78 28.8121 129.806 77 970 270 10 41
1948273N24144 1948 68 WP MM LIBBY 1948-10-05 06:00:00 TS 29.2420 130.226 main 206 145 O________OPO__ jtwc_wp WP171948 29.2000 130.200 75 1 29.2000 130.200 TC 75 29.3678 130.302 4 77 29.2000 130.200 75 972 240 12 41
1948273N24144 1948 68 WP MM LIBBY 1948-10-05 09:00:00 TS 29.7598 130.751 main 134 101 P________PPP__ WP171948 29.7347 130.732 75 1 29.7347 130.732 TC 75 29.8349 130.805 4 76 29.7347 130.732 75 973 240 15 44
1948273N24144 1948 68 WP MM LIBBY 1948-10-05 12:00:00 TS 30.3000 131.400 main 102 96 O________OOO__ jtwc_wp WP171948 30.3000 131.400 75 1 30.3000 131.400 TC 75 30.3000 131.400 4 75 30.3000 131.400 75 975 240 16 50
1948273N24144 1948 68 WP MM LIBBY 1948-10-05 15:00:00 TS 30.7616 132.153 main 101 101 P________PPP__ WP171948 30.7725 132.170 72 1 30.7725 132.170 TC 72 30.7287 132.099 4 73 30.7725 132.170 72 976 240 16 57
1948273N24144 1948 68 WP MM LIBBY 1948-10-05 18:00:00 TS 31.1877 132.972 main 153 139 O________OPO__ jtwc_wp WP171948 31.2000 133.000 70 1 31.2000 133.000 TC 70 31.1506 132.889 4 72 31.2000 133.000 70 978 240 16 59
1948273N24144 1948 68 WP MM LIBBY 1948-10-05 21:00:00 TS 31.5984 133.790 main 143 136 P________PPP__ WP171948 31.6071 133.808 70 1 31.6071 133.808 TC 70 31.5720 133.735 4 71 31.6071 133.808 70 979 270 16 60
1948273N24144 1948 68 WP MM LIBBY 1948-10-06 00:00:00 TS 32.0000 134.600 main 138 120 O________OOO__ jtwc_wp WP171948 32.0000 134.600 70 1 32.0000 134.600 TC 70 32.0000 134.600 4 70 32.0000 134.600 70 981 300 15 59
1948273N24144 1948 68 WP MM LIBBY 1948-10-06 03:00:00 TS 32.3986 135.344 main 120 69 P________PPP__ WP171948 32.3839 135.329 70 1 32.3839 135.329 TC 70 32.4430 135.387 4 68 32.3839 135.329 70 982 300 15 57
1948273N24144 1948 68 WP MM LIBBY 1948-10-06 06:00:00 TS 32.8235 136.123 main 72 67 O________OPO__ jtwc_wp WP171948 32.8000 136.100 70 1 32.8000 136.100 TC 70 32.8940 136.193 4 67 32.8000 136.100 70 984 300 17 57
1948273N24144 1948 68 WP MM LIBBY 1948-10-06 09:00:00 TS 33.3119 137.022 main 98 93 P________PPP__ WP171948 33.2997 137.012 67 1 33.2997 137.012 TC 67 33.3482 137.053 4 66 33.2997 137.012 67 985 300 18 58
1948273N24144 1948 68 WP MM LIBBY 1948-10-06 12:00:00 TS 33.8000 138.000 main 91 45 O________OOO__ jtwc_wp WP171948 33.8000 138.000 65 1 33.8000 138.000 TC 65 33.8000 138.000 4 65 33.8000 138.000 65 986 300 19 61
1948273N24144 1948 68 WP MM LIBBY 1948-10-06 15:00:00 TS 34.2149 138.972 main 48 33 P________PPP__ WP171948 34.2054 138.943 62 0 34.2054 138.943 TC 62 34.2434 139.059 4 61 34.2054 138.943 62 987 270 19 64
1948273N24144 1948 68 WP MM LIBBY 1948-10-06 18:00:00 TS 34.6189 140.053 main 38 35 O________OPO__ jtwc_wp WP171948 34.6000 140.000 60 0 34.6000 140.000 TC 60 34.6756 140.213 4 57 34.6000 140.000 60 988 240 21 67
1948273N24144 1948 68 WP MM LIBBY 1948-10-06 21:00:00 TS 35.0532 141.318 main 76 76 P________PPP__ WP171948 35.0393 141.278 55 0 35.0393 141.278 TC 55 35.0947 141.436 4 53 35.0393 141.278 55 989 180 23 68
1948273N24144 1948 68 WP MM LIBBY 1948-10-07 00:00:00 TS 35.5000 142.700 main 163 O________OOO__ jtwc_wp WP171948 35.5000 142.700 50 0 35.5000 142.700 TC 50 35.5000 142.700 2 50 35.5000 142.700 50 990 120 24 68

デジタル台風データ・検索

IBTrACS Databaseについて

本データベースは、米国NOAAが公開する1842年以降の世界の熱帯低気圧のベストトラックデータアーカイブInternational Best Track Archive for Climate Stewardship (IBTrACS)を、ウェブで閲覧しやすい形式に変換したものです。

最終更新日:2021-11-26